Terminal Aerodrome Forecast
Issued by NWS

Home | Current Version | Previous Version | Text Only | Print | Product List | Glossary On
Versions: 1 2 3 4 5 6 7 8 9 10 11 12 13 14 15 16 17 18 19 20 21 22 23 24 25 26 27 28 29 30 31
000
FTUS46 KSEW 032347
TAFSEA
TAF
KSEA 032347Z 0400/0506 23008KT P6SM -SHRA BKN040 BKN080
     FM040300 29006KT P6SM SCT060 BKN080
     FM040900 01006KT P6SM SCT020 BKN050
     FM041700 33008KT P6SM BKN080
     FM042100 35010KT P6SM SCT080=

USA.gov is the U.S. government's official web portal to all federal, state and local government web resources and services.